Pembroke, Canada
Current Conditions -  °F | °C
As of 1:00 AM on Thursday 27 Nov 2014 (Local Time) from CYWA Reporting Station
Overcast Overcast  
Wind Chill: 17°   Ceiling: 2500
Heat Index: 25°   Visibility: 9mi
Dew Point: 12°   Wind: 7mph
Humidity: 59%   Direction: 40°NE
Pressure: 30.1"   Gusts: NA
Location:  45.83°N, 77.11°W
Report Text: CYWA 270600Z AUTO 04006KT 9SM OVC025 M04/M11 A3010 RMK SLP202
Loading
Personal Weather Stations






























Interactive Weather Map New forecast layout! Learn more

10-Day Weather Forecast

Advertisements
Track Severe Weather on mobile